Domov               UVHVVR             MKGP            O straneh              
ZDRAVSTVENO VARSTVO RASTLIN
  MREŽA AGROMET. POSTAJ
 ► PROGNOSTIČNA OBVESTILA
AGROMETEOROLOŠKI PODATKI -
ARSO
OBVLADOVANJE TVEGANJ ZARADI
NEUGODNIH VREMENSKIH RAZMER
  ► NARAVNE NESREČE
  ► SUŠA/MOČA
  ► NAMAKANJE
  ► ŽLED (gozdarstvo)
KARTOGRAFSKI PRIKAZI
SPLETNE POVEZAVE
PROJEKTI IN PUBLIKACIJE

AGROMETEOROLOŠKA MREŽA: VREMENSKE POSTAJE IN FENOLOŠKA OPAZOVANJA

Pregled podatkov za lokacijo Žabnica (Dorfarje), meteorološka postaja 41375

Pregled senzorjev na lokaciji

ID Ime Zadnja
vrednost
Datum
zadnje
spremembe
Tip
senzorja
4184 Omočenost lista 20 cm (U) 10 U 19.7.2018 05:30 A730WET
3846 Padavine (mm) 0 mm 19.7.2018 05:30 Generic 0.2 mm
3847 Relativna vlaga 2 m (% RH) 94,8 % RH 19.7.2018 05:30 Generic 0 - 100 %
3950 Relativna vlaga 20 cm (% RH) 99,93 % RH 19.7.2018 05:30 Generic 0 - 100 %
3848 Temperatura 2 m (°C) 12,36 °C 19.7.2018 05:30 Generic -40 - +60 °C
3949 Temperatura 20 cm (°C) 11,01 °C 19.7.2018 05:30 Generic -40 - +60 °C

Pregled podatkov zadnjih 24 ur

Zap.
št.
Datum in čas Žabnica (Dorfarje)
Omočenost
lista
20
cm
Padavine Relativna
vlaga
2
m
Relativna
vlaga
20
cm
Temperatura
2
m
Temperatura
20
cm
1 19.7.2018 05:30
2 19.7.2018 05:00
3 19.7.2018 04:30 10 0 94,8 99,9 12,4 11
4 19.7.2018 04:00 10 0 94,6 99,9 12,4 11,3
5 19.7.2018 03:30 10 0 94,1 99,9 13 11,8
6 19.7.2018 03:00 10 0 94,6 99,9 13,2 11,8
7 19.7.2018 02:30 10 0 92,8 99,9 13,7 12,4
8 19.7.2018 02:00 10 0 91,2 99,9 14,3 12,9
9 19.7.2018 01:30 10 0 92,3 99,9 14,3 13
10 19.7.2018 01:00 10 0 91,4 99,9 14,8 13,3
11 19.7.2018 00:30 10 0 89,3 99,9 15,3 13,8
12 19.7.2018 00:00 10 0 88,6 99,9 15,8 14,3
13 18.7.2018 23:30 10 0 88,8 99,9 16,3 14,7
14 18.7.2018 23:00 10 0 88,7 99,9 16,4 15
15 18.7.2018 22:30 10 0 86,7 99 17,3 15,7
16 18.7.2018 22:00 10 0 82,3 96,8 18,6 16,6
17 18.7.2018 21:30 10 0 77,9 92,4 19,7 17,6
18 18.7.2018 21:00 10 0 72,8 90,3 21,1 18,6
19 18.7.2018 20:30 8 0 74,4 90 21,4 18,9
20 18.7.2018 20:00 0 0 65,3 80,1 23,3 21,1
21 18.7.2018 19:30 0 0 58,9 71,1 25,1 23,4
22 18.7.2018 19:00 0 0 53,2 63,2 26,6 25,5
23 18.7.2018 18:30 0 0 46,9 54,9 27,6 27,3
24 18.7.2018 18:00 0 0 44 50,1 28,6 29,8
25 18.7.2018 17:30 0 0 41,5 47,3 29 30,8
26 18.7.2018 17:00 0 0 39,8 47,9 29,5 29,9
27 18.7.2018 16:30 0 0 39,2 47,4 29,4 30,2
28 18.7.2018 16:00 0 0 30,5 34,7 30 32,6
29 18.7.2018 15:30 0 0 31,5 35,4 29,7 32,7
30 18.7.2018 15:00 0 0 33,1 36,5 29,1 31,1
31 18.7.2018 14:30 0 0 32 35,7 29,6 32,3
32 18.7.2018 14:00 0 0 31,4 35 29,7 33,4
33 18.7.2018 13:30 0 0 32,3 35,1 29,2 32,2
34 18.7.2018 13:00 0 0 30,8 33,9 29,5 33,1
35 18.7.2018 12:30 0 0 30,6 33,7 29,2 32,1
36 18.7.2018 12:00 0 0 32,4 36 29 31,6
37 18.7.2018 11:30 0 0 31,3 35,2 28,6 31,3
38 18.7.2018 11:00 0 0 33,7 36,8 28,5 31,4
39 18.7.2018 10:30 0 0 41,7 43,2 27,6 31,3
40 18.7.2018 10:00 0 0 49,6 50,1 26,3 29,9
41 18.7.2018 09:30 0 0 62,9 63,1 24,2 28,1
42 18.7.2018 09:00 0 0 66,9 62,8 22,7 27,2
43 18.7.2018 08:30 0 0 70,6 67,5 21,3 25,2
44 18.7.2018 08:00 0 0 75,7 75,7 19,8 22,5
45 18.7.2018 07:30 0 0 79,5 83,9 18,5 20,1
46 18.7.2018 07:00 10 0 83,7 92,7 17,3 18,1
47 18.7.2018 06:30 10 0 89,2 99,9 16,2 15,7
48 18.7.2018 06:00 10 0 91,3 99,9 14,5 13,6
© 2011 Ministrstvo za kmetijstvo, gozdarstvo in prehrano. Vse pravice pridržane.